| time (UTC) | temp C | wind direction | speed KPH | gust KPH | rain 1hr cm | rain 24hr cm | rain mn cm | humidity % | barometer mb |
| 20260507130048 | 13 | 348 | 0.0 | 4.8 | 0.00 | 0.00 | 0.00 | 90 | 1011.4 |
| 20260507124547 | 13 | 0 | 0.0 | 12.9 | 0.00 | 0.00 | 0.00 | 90 | 1011.5 |
| 20260507123050 | 13 | 0 | 0.0 | 11.3 | 0.00 | 0.00 | 0.00 | 90 | 1011.4 |
| 20260507121543 | 13 | 330 | 6.4 | 14.5 | 0.00 | 0.00 | 0.00 | 90 | 1011.8 |
| 20260507120042 | 13 | 37 | 8.0 | 17.7 | 0.00 | 0.00 | 0.00 | 89 | 1011.4 |
| 20260507114555 | 14 | 23 | 6.4 | 16.1 | 0.00 | 0.00 | 0.00 | 87 | 1011.5 |
| 20260507113048 | 14 | 15 | 6.4 | 12.9 | 0.00 | 0.00 | 0.00 | 87 | 1011.4 |
| 20260507111550 | 14 | 13 | 9.7 | 17.7 | 0.00 | 0.00 | 0.00 | 85 | 1011.4 |
| 20260507110047 | 14 | 355 | 4.8 | 12.9 | 0.00 | 0.00 | 0.00 | 86 | 1011.0 |
| 20260507104550 | 15 | 4 | 1.6 | 16.1 | 0.00 | 0.00 | 0.00 | 90 | 1010.6 |
| 20260507103049 | 15 | 352 | 8.0 | 19.3 | 0.00 | 0.00 | 0.00 | 90 | 1010.7 |
| 20260507101549 | 16 | 48 | 12.9 | 19.3 | 0.00 | 0.00 | 0.00 | 90 | 1010.6 |
| 20260507100050 | 16 | 32 | 14.5 | 22.5 | 0.00 | 0.00 | 0.00 | 90 | 1010.3 |
| 20260507094548 | 17 | 18 | 14.5 | 19.3 | 0.00 | 0.00 | 0.00 | 89 | 1010.3 |
| 20260507093047 | 18 | 339 | 6.4 | 12.9 | 0.00 | 0.00 | 0.00 | 88 | 1010.0 |
| 20260507091543 | 18 | 1 | 9.7 | 24.1 | 0.00 | 0.00 | 0.00 | 87 | 1009.8 |
| 20260507090041 | 19 | 132 | 1.6 | 3.2 | 0.00 | 0.00 | 0.00 | 87 | 1009.4 |
| 20260507084547 | 20 | 352 | 1.6 | 3.2 | 0.00 | 0.00 | 0.00 | 86 | 1009.6 |
| 20260507083050 | 20 | 0 | 0.0 | 4.8 | 0.00 | 0.00 | 0.00 | 86 | 1009.4 |
| 20260507081546 | 20 | 0 | 1.6 | 9.7 | 0.00 | 0.00 | 0.00 | 86 | 1009.4 |
| 20260507080045 | 20 | 285 | 3.2 | 14.5 | 0.00 | 0.00 | 0.00 | 86 | 1009.2 |
| 20260507074554 | 20 | 276 | 4.8 | 17.7 | 0.00 | 0.00 | 0.00 | 86 | 1009.6 |
| 20260507073043 | 20 | 240 | 4.8 | 17.7 | 0.00 | 0.00 | 0.00 | 86 | 1009.5 |
| 20260507071552 | 20 | 246 | 9.7 | 20.9 | 0.00 | 0.00 | 0.00 | 86 | 1009.4 |
| 20260507070044 | 20 | 240 | 6.4 | 19.3 | 0.00 | 0.00 | 0.00 | 86 | 1008.9 |
| 20260507064551 | 20 | 214 | 11.3 | 19.3 | 0.00 | 0.00 | 0.00 | 86 | 1008.5 |
| 20260507063053 | 20 | 216 | 9.7 | 20.9 | 0.00 | 0.00 | 0.00 | 84 | 1008.3 |
| 20260507061546 | 21 | 220 | 11.3 | 20.9 | 0.00 | 0.00 | 0.00 | 83 | 1009.1 |
| 20260507060057 | 21 | 219 | 9.7 | 17.7 | 0.00 | 0.00 | 0.00 | 80 | 1009.5 |
| 20260507054549 | 21 | 215 | 12.9 | 19.3 | 0.00 | 0.00 | 0.00 | 79 | 1009.8 |
| 20260507053053 | 21 | 233 | 9.7 | 20.9 | 0.00 | 0.00 | 0.00 | 78 | 1010.0 |
| 20260507051551 | 21 | 213 | 8.0 | 19.3 | 0.00 | 0.00 | 0.00 | 77 | 1010.1 |
| 20260507050046 | 22 | 203 | 8.0 | 16.1 | 0.00 | 0.00 | 0.00 | 76 | 1010.2 |
| 20260507044557 | 22 | 229 | 6.4 | 16.1 | 0.00 | 0.00 | 0.00 | 76 | 1010.3 |
| 20260507043046 | 22 | 212 | 6.4 | 16.1 | 0.00 | 0.00 | 0.00 | 76 | 1010.0 |
| 20260507041551 | 22 | 212 | 8.0 | 16.1 | 0.00 | 0.00 | 0.00 | 76 | 1010.0 |
| 20260507040048 | 21 | 211 | 8.0 | 19.3 | 0.00 | 0.00 | 0.00 | 77 | 1010.2 |
| 20260507034550 | 21 | 176 | 6.4 | 12.9 | 0.00 | 0.00 | 0.00 | 77 | 1010.4 |
| 20260507033044 | 21 | 214 | 9.7 | 19.3 | 0.00 | 0.00 | 0.00 | 77 | 1010.1 |
| 20260507031542 | 21 | 198 | 8.0 | 16.1 | 0.00 | 0.00 | 0.00 | 77 | 1010.0 |
| 20260507030056 | 21 | 211 | 9.7 | 14.5 | 0.00 | 0.00 | 0.00 | 77 | 1010.0 |
| 20260507024554 | 21 | 180 | 8.0 | 16.1 | 0.00 | 0.00 | 0.00 | 77 | 1010.3 |
| 20260507023048 | 21 | 228 | 9.7 | 14.5 | 0.00 | 0.00 | 0.00 | 77 | 1010.2 |
| 20260507021546 | 21 | 213 | 6.4 | 12.9 | 0.00 | 0.00 | 0.00 | 76 | 1010.4 |
| 20260507020049 | 21 | 198 | 8.0 | 12.9 | 0.00 | 0.00 | 0.00 | 76 | 1010.5 |
| 20260507014543 | 21 | 208 | 8.0 | 11.3 | 0.00 | 0.00 | 0.00 | 75 | 1010.7 |
| 20260507013055 | 21 | 218 | 4.8 | 9.7 | 0.00 | 0.00 | 0.00 | 75 | 1010.7 |
| 20260507011544 | 22 | 214 | 3.2 | 9.7 | 0.00 | 0.00 | 0.00 | 74 | 1010.5 |
| 20260507010045 | 22 | 219 | 9.7 | 17.7 | 0.00 | 0.00 | 0.00 | 72 | 1010.7 |
| 20260507004556 | 22 | 206 | 8.0 | 17.7 | 0.00 | 0.00 | 0.00 | 72 | 1010.4 |
| 20260507003045 | 22 | 243 | 9.7 | 19.3 | 0.00 | 0.00 | 0.00 | 71 | 1010.4 |
| 20260507001544 | 22 | 206 | 9.7 | 16.1 | 0.00 | 0.00 | 0.00 | 71 | 1010.3 |
| 20260507000048 | 22 | 200 | 8.0 | 17.7 | 0.00 | 0.00 | 0.00 | 70 | 1010.1 |
| 20260506234542 | 22 | 208 | 6.4 | 12.9 | 0.00 | 0.00 | 0.00 | 70 | 1010.2 |
| 20260506233049 | 23 | 203 | 8.0 | 12.9 | 0.00 | 0.00 | 0.00 | 69 | 1010.0 |
| 20260506231547 | 22 | 211 | 4.8 | 12.9 | 0.00 | 0.00 | 0.00 | 70 | 1009.8 |
| 20260506230046 | 23 | 191 | 4.8 | 12.9 | 0.00 | 0.00 | 0.00 | 69 | 1009.9 |
| 20260506224558 | 23 | 221 | 8.0 | 14.5 | 0.00 | 0.00 | 0.00 | 68 | 1010.0 |
| 20260506223042 | 23 | 214 | 6.4 | 16.1 | 0.00 | 0.00 | 0.00 | 67 | 1009.9 |
| 20260506221553 | 23 | 245 | 9.7 | 16.1 | 0.00 | 0.00 | 0.00 | 66 | 1010.1 |
| 20260506220049 | 23 | 236 | 6.4 | 20.9 | 0.00 | 0.00 | 0.00 | 67 | 1010.0 |
| 20260506214605 | 23 | 244 | 9.7 | 20.9 | 0.00 | 0.00 | 0.00 | 66 | 1009.9 |
| 20260506213045 | 23 | 212 | 9.7 | 29.0 | 0.00 | 0.00 | 0.00 | 66 | 1009.8 |
| 20260506211542 | 23 | 222 | 9.7 | 27.4 | 0.00 | 0.00 | 0.00 | 66 | 1009.8 |
| 20260506210042 | 23 | 220 | 14.5 | 29.0 | 0.00 | 0.00 | 0.00 | 66 | 1009.7 |
| 20260506204556 | 23 | 236 | 11.3 | 20.9 | 0.00 | 0.00 | 0.00 | 67 | 1009.5 |
| 20260506203052 | 23 | 198 | 17.7 | 25.7 | 0.00 | 0.00 | 0.00 | 68 | 1009.1 |
| 20260506201550 | 23 | 236 | 16.1 | 27.4 | 0.00 | 0.00 | 0.00 | 68 | 1009.3 |
| 20260506200046 | 22 | 217 | 16.1 | 30.6 | 0.00 | 0.00 | 0.00 | 68 | 1009.5 |
| 20260506194557 | 22 | 199 | 19.3 | 27.4 | 0.00 | 0.00 | 0.00 | 68 | 1009.5 |
| 20260506193042 | 22 | 199 | 12.9 | 22.5 | 0.00 | 0.00 | 0.00 | 69 | 1010.4 |
| 20260506191551 | 22 | 217 | 11.3 | 22.5 | 0.00 | 0.00 | 0.00 | 71 | 1010.9 |
| 20260506190048 | 21 | 230 | 9.7 | 17.7 | 0.00 | 0.00 | 0.00 | 73 | 1011.1 |
| 20260506184548 | 22 | 213 | 14.5 | 24.1 | 0.00 | 0.00 | 0.00 | 71 | 1011.4 |
| 20260506183047 | 22 | 192 | 11.3 | 22.5 | 0.00 | 0.00 | 0.00 | 70 | 1011.5 |
| 20260506181548 | 22 | 207 | 14.5 | 24.1 | 0.00 | 0.00 | 0.00 | 71 | 1011.6 |
| 20260506180051 | 21 | 205 | 12.9 | 25.7 | 0.00 | 0.00 | 0.00 | 72 | 1011.5 |
| 20260506174544 | 21 | 213 | 20.9 | 32.2 | 0.00 | 0.00 | 0.00 | 73 | 1011.5 |
| 20260506173049 | 21 | 176 | 12.9 | 25.7 | 0.00 | 0.00 | 0.00 | 76 | 1011.6 |
| 20260506171555 | 20 | 191 | 16.1 | 24.1 | 0.00 | 0.00 | 0.00 | 77 | 1011.7 |
| 20260506170047 | 20 | 180 | 16.1 | 25.7 | 0.00 | 0.00 | 0.00 | 78 | 1012.2 |
| 20260506164543 | 19 | 193 | 14.5 | 22.5 | 0.00 | 0.00 | 0.00 | 80 | 1012.4 |
| 20260506163049 | 19 | 200 | 14.5 | 20.9 | 0.00 | 0.00 | 0.00 | 81 | 1012.6 |
| 20260506161545 | 18 | 213 | 9.7 | 19.3 | 0.00 | 0.00 | 0.00 | 82 | 1012.8 |
| 20260506160050 | 18 | 207 | 12.9 | 17.7 | 0.00 | 0.00 | 0.00 | 81 | 1013.3 |
| 20260506154607 | 20 | 216 | 12.9 | 22.5 | 0.00 | 0.00 | 0.00 | 78 | 1013.5 |
| 20260506153047 | 20 | 211 | 17.7 | 30.6 | 0.00 | 0.00 | 0.00 | 77 | 1013.6 |
| 20260506151543 | 20 | 244 | 17.7 | 25.7 | 0.00 | 0.00 | 0.00 | 74 | 1013.6 |
| 20260506150053 | 20 | 214 | 19.3 | 32.2 | 0.00 | 0.00 | 0.00 | 76 | 1013.5 |
| 20260506144559 | 20 | 200 | 19.3 | 27.4 | 0.00 | 0.00 | 0.00 | 77 | 1013.4 |
| 20260506143048 | 19 | 188 | 14.5 | 22.5 | 0.00 | 0.00 | 0.00 | 79 | 1013.2 |
| 20260506141542 | 19 | 198 | 14.5 | 29.0 | 0.00 | 0.00 | 0.00 | 76 | 1013.5 |
| 20260506140059 | 20 | 199 | 14.5 | 32.2 | 0.00 | 0.00 | 0.00 | 75 | 1013.5 |
| 20260506134549 | 20 | 206 | 20.9 | 30.6 | 0.00 | 0.00 | 0.00 | 74 | 1013.3 |
| 20260506133052 | 20 | 224 | 17.7 | 40.2 | 0.00 | 0.00 | 0.00 | 75 | 1013.3 |
| 20260506131549 | 20 | 250 | 16.1 | 35.4 | 0.00 | 0.00 | 0.00 | 74 | 1013.3 |